sensor_id;sensor_type;location;lat;lon;timestamp;pressure;altitude;pressure_sealevel;temperature;humidity
30897;BME280;64229;52.246;21.054;2023-04-10T00:02:24;101351.19;;;9.12;100.00
30897;BME280;64229;52.246;21.054;2023-04-10T00:04:50;101323.25;;;8.91;100.00
30897;BME280;64229;52.246;21.054;2023-04-10T00:07:15;101350.25;;;9.06;100.00
30897;BME280;64229;52.246;21.054;2023-04-10T00:09:41;101318.94;;;8.78;100.00
30897;BME280;64229;52.246;21.054;2023-04-10T00:12:06;101328.91;;;8.83;100.00
30897;BME280;64229;52.246;21.054;2023-04-10T00:14:32;101349.53;;;8.99;100.00
30897;BME280;64229;52.246;21.054;2023-04-10T00:16:57;101357.53;;;8.99;100.00
30897;BME280;64229;52.246;21.054;2023-04-10T00:19:22;101354.06;;;8.98;100.00
30897;BME280;64229;52.246;21.054;2023-04-10T00:21:48;101360.78;;;9.01;100.00
30897;BME280;64229;52.246;21.054;2023-04-10T00:24:13;101363.66;;;8.99;100.00
30897;BME280;64229;52.246;21.054;2023-04-10T00:26:39;101356.81;;;8.92;100.00
30897;BME280;64229;52.246;21.054;2023-04-10T00:29:04;101359.69;;;8.90;100.00
30897;BME280;64229;52.246;21.054;2023-04-10T00:31:30;101355.66;;;8.88;100.00
30897;BME280;64229;52.246;21.054;2023-04-10T00:33:56;101345.78;;;8.77;100.00
30897;BME280;64229;52.246;21.054;2023-04-10T00:36:22;101353.53;;;8.78;100.00
30897;BME280;64229;52.246;21.054;2023-04-10T00:38:47;101353.44;;;8.85;100.00
30897;BME280;64229;52.246;21.054;2023-04-10T00:41:14;101347.28;;;8.73;100.00
30897;BME280;64229;52.246;21.054;2023-04-10T00:43:39;101356.06;;;8.73;100.00
30897;BME280;64229;52.246;21.054;2023-04-10T00:46:05;101353.84;;;8.70;100.00
30897;BME280;64229;52.246;21.054;2023-04-10T00:48:31;101358.13;;;8.71;100.00
30897;BME280;64229;52.246;21.054;2023-04-10T00:50:57;101359.16;;;8.70;100.00
30897;BME280;64229;52.246;21.054;2023-04-10T00:53:22;101355.97;;;8.80;100.00
30897;BME280;64229;52.246;21.054;2023-04-10T00:55:48;101366.31;;;8.88;100.00
30897;BME280;64229;52.246;21.054;2023-04-10T00:58:17;101361.28;;;8.80;100.00
30897;BME280;64229;52.246;21.054;2023-04-10T01:00:42;101364.41;;;8.77;100.00
30897;BME280;64229;52.246;21.054;2023-04-10T01:03:08;101366.25;;;8.76;100.00
30897;BME280;64229;52.246;21.054;2023-04-10T01:05:41;101365.22;;;8.77;100.00
30897;BME280;64229;52.246;21.054;2023-04-10T01:10:37;101373.75;;;8.67;100.00
30897;BME280;64229;52.246;21.054;2023-04-10T01:13:27;101373.81;;;8.61;100.00
30897;BME280;64229;52.246;21.054;2023-04-10T01:16:15;101380.66;;;8.57;100.00
30897;BME280;64229;52.246;21.054;2023-04-10T01:18:51;101383.06;;;8.58;100.00
30897;BME280;64229;52.246;21.054;2023-04-10T01:21:20;101354.50;;;8.54;100.00
30897;BME280;64229;52.246;21.054;2023-04-10T01:23:52;101368.31;;;8.62;100.00
30897;BME280;64229;52.246;21.054;2023-04-10T01:26:31;101368.88;;;8.64;100.00
30897;BME280;64229;52.246;21.054;2023-04-10T01:29:08;101370.34;;;8.60;100.00
30897;BME280;64229;52.246;21.054;2023-04-10T01:34:15;101364.09;;;8.55;100.00
30897;BME280;64229;52.246;21.054;2023-04-10T01:36:48;101361.91;;;8.52;100.00
30897;BME280;64229;52.246;21.054;2023-04-10T01:39:18;101359.88;;;8.47;100.00
30897;BME280;64229;52.246;21.054;2023-04-10T01:41:45;101359.75;;;8.42;100.00
30897;BME280;64229;52.246;21.054;2023-04-10T01:44:13;101358.81;;;8.36;100.00
30897;BME280;64229;52.246;21.054;2023-04-10T01:46:41;101359.19;;;8.40;100.00
30897;BME280;64229;52.246;21.054;2023-04-10T01:49:08;101359.19;;;8.40;100.00
30897;BME280;64229;52.246;21.054;2023-04-10T01:51:34;101356.56;;;8.33;100.00
30897;BME280;64229;52.246;21.054;2023-04-10T01:54:00;101363.88;;;8.38;100.00
30897;BME280;64229;52.246;21.054;2023-04-10T01:56:27;101363.53;;;8.34;100.00
30897;BME280;64229;52.246;21.054;2023-04-10T01:58:53;101363.53;;;8.34;100.00
30897;BME280;64229;52.246;21.054;2023-04-10T02:01:19;101368.00;;;8.34;100.00
30897;BME280;64229;52.246;21.054;2023-04-10T02:03:46;101366.19;;;8.34;100.00
30897;BME280;64229;52.246;21.054;2023-04-10T02:06:24;101365.00;;;8.30;100.00
30897;BME280;64229;52.246;21.054;2023-04-10T02:08:56;101358.88;;;8.30;100.00
30897;BME280;64229;52.246;21.054;2023-04-10T02:11:54;101364.25;;;8.23;100.00
30897;BME280;64229;52.246;21.054;2023-04-10T02:14:21;101360.19;;;8.21;100.00
30897;BME280;64229;52.246;21.054;2023-04-10T02:16:49;101354.94;;;8.14;100.00
30897;BME280;64229;52.246;21.054;2023-04-10T02:19:18;101362.25;;;8.19;100.00
30897;BME280;64229;52.246;21.054;2023-04-10T02:21:45;101343.94;;;8.10;100.00
30897;BME280;64229;52.246;21.054;2023-04-10T02:24:11;101363.28;;;8.18;100.00
30897;BME280;64229;52.246;21.054;2023-04-10T02:26:46;101363.91;;;8.20;100.00
30897;BME280;64229;52.246;21.054;2023-04-10T02:29:12;101363.91;;;8.20;100.00
30897;BME280;64229;52.246;21.054;2023-04-10T02:31:40;101370.03;;;8.20;100.00
30897;BME280;64229;52.246;21.054;2023-04-10T02:34:05;101370.03;;;8.20;100.00
30897;BME280;64229;52.246;21.054;2023-04-10T02:36:31;101373.84;;;8.24;100.00
30897;BME280;64229;52.246;21.054;2023-04-10T02:38:57;101375.84;;;8.29;100.00
30897;BME280;64229;52.246;21.054;2023-04-10T02:41:22;101371.13;;;8.31;100.00
30897;BME280;64229;52.246;21.054;2023-04-10T02:43:48;101372.00;;;8.25;100.00
30897;BME280;64229;52.246;21.054;2023-04-10T02:46:13;101368.00;;;8.16;100.00
30897;BME280;64229;52.246;21.054;2023-04-10T02:48:39;101375.75;;;8.17;100.00
30897;BME280;64229;52.246;21.054;2023-04-10T02:51:04;101373.03;;;8.24;100.00
30897;BME280;64229;52.246;21.054;2023-04-10T02:53:32;101376.75;;;8.23;100.00
30897;BME280;64229;52.246;21.054;2023-04-10T02:55:57;101368.59;;;8.18;100.00
30897;BME280;64229;52.246;21.054;2023-04-10T02:58:23;101369.63;;;8.17;100.00
30897;BME280;64229;52.246;21.054;2023-04-10T03:00:48;101373.09;;;8.17;100.00
30897;BME280;64229;52.246;21.054;2023-04-10T03:03:15;101373.44;;;8.09;100.00
30897;BME280;64229;52.246;21.054;2023-04-10T03:05:40;101369.78;;;8.03;100.00
30897;BME280;64229;52.246;21.054;2023-04-10T03:08:06;101370.81;;;8.02;100.00
30897;BME280;64229;52.246;21.054;2023-04-10T03:10:31;101369.44;;;8.00;100.00
30897;BME280;64229;52.246;21.054;2023-04-10T03:12:57;101365.06;;;8.05;100.00
30897;BME280;64229;52.246;21.054;2023-04-10T03:15:22;101374.88;;;8.05;100.00
30897;BME280;64229;52.246;21.054;2023-04-10T03:17:47;101361.69;;;7.98;100.00
30897;BME280;64229;52.246;21.054;2023-04-10T03:20:13;101372.72;;;7.95;100.00
30897;BME280;64229;52.246;21.054;2023-04-10T03:22:39;101371.13;;;7.94;100.00
30897;BME280;64229;52.246;21.054;2023-04-10T03:25:05;101355.75;;;7.96;100.00
30897;BME280;64229;52.246;21.054;2023-04-10T03:27:30;101359.66;;;7.94;100.00
30897;BME280;64229;52.246;21.054;2023-04-10T03:29:59;101346.06;;;7.83;100.00
30897;BME280;64229;52.246;21.054;2023-04-10T03:32:24;101351.97;;;7.86;100.00
30897;BME280;64229;52.246;21.054;2023-04-10T03:34:52;101362.28;;;8.00;100.00
30897;BME280;64229;52.246;21.054;2023-04-10T03:37:17;101367.19;;;7.97;100.00
30897;BME280;64229;52.246;21.054;2023-04-10T03:39:43;101351.47;;;7.95;100.00
30897;BME280;64229;52.246;21.054;2023-04-10T03:42:09;101353.31;;;7.95;100.00
30897;BME280;64229;52.246;21.054;2023-04-10T03:44:35;101351.06;;;7.98;100.00
30897;BME280;64229;52.246;21.054;2023-04-10T03:47:01;101359.66;;;7.94;100.00
30897;BME280;64229;52.246;21.054;2023-04-10T03:49:26;101355.16;;;7.94;100.00
30897;BME280;64229;52.246;21.054;2023-04-10T03:51:52;101332.06;;;7.76;100.00
30897;BME280;64229;52.246;21.054;2023-04-10T03:54:17;101354.81;;;7.91;100.00
30897;BME280;64229;52.246;21.054;2023-04-10T03:56:42;101358.63;;;7.95;100.00
30897;BME280;64229;52.246;21.054;2023-04-10T03:59:07;101364.53;;;7.97;100.00
30897;BME280;64229;52.246;21.054;2023-04-10T04:01:33;101361.69;;;7.98;100.00
30897;BME280;64229;52.246;21.054;2023-04-10T04:03:58;101379.84;;;8.01;100.00
30897;BME280;64229;52.246;21.054;2023-04-10T04:06:23;101380.28;;;7.98;100.00
30897;BME280;64229;52.246;21.054;2023-04-10T04:08:49;101373.53;;;7.96;100.00
30897;BME280;64229;52.246;21.054;2023-04-10T04:11:15;101381.75;;;7.94;100.00
30897;BME280;64229;52.246;21.054;2023-04-10T04:13:40;101381.16;;;7.92;100.00
30897;BME280;64229;52.246;21.054;2023-04-10T04:16:06;101368.16;;;7.84;100.00
30897;BME280;64229;52.246;21.054;2023-04-10T04:18:31;101378.50;;;7.92;100.00
30897;BME280;64229;52.246;21.054;2023-04-10T04:20:57;101389.13;;;7.92;100.00
30897;BME280;64229;52.246;21.054;2023-04-10T04:23:22;101392.78;;;7.98;100.00
30897;BME280;64229;52.246;21.054;2023-04-10T04:25:47;101394.97;;;8.01;100.00
30897;BME280;64229;52.246;21.054;2023-04-10T04:28:16;101401.97;;;7.95;100.00
30897;BME280;64229;52.246;21.054;2023-04-10T04:30:42;101398.50;;;7.95;100.00
30897;BME280;64229;52.246;21.054;2023-04-10T04:33:07;101396.66;;;7.95;100.00
30897;BME280;64229;52.246;21.054;2023-04-10T04:35:32;101399.09;;;7.97;100.00
30897;BME280;64229;52.246;21.054;2023-04-10T04:37:58;101396.31;;;7.92;100.00
30897;BME280;64229;52.246;21.054;2023-04-10T04:40:23;101410.75;;;7.96;100.00
30897;BME280;64229;52.246;21.054;2023-04-10T04:42:48;101396.81;;;8.00;100.00
30897;BME280;64229;52.246;21.054;2023-04-10T04:45:14;101395.78;;;8.01;100.00
30897;BME280;64229;52.246;21.054;2023-04-10T04:47:39;101401.09;;;8.01;100.00
30897;BME280;64229;52.246;21.054;2023-04-10T04:50:05;101400.06;;;8.02;100.00
30897;BME280;64229;52.246;21.054;2023-04-10T04:52:30;101395.56;;;8.03;100.00
30897;BME280;64229;52.246;21.054;2023-04-10T04:54:56;101397.13;;;8.10;100.00
30897;BME280;64229;52.246;21.054;2023-04-10T04:57:21;101401.63;;;8.10;100.00
30897;BME280;64229;52.246;21.054;2023-04-10T04:59:47;101407.25;;;8.20;100.00
30897;BME280;64229;52.246;21.054;2023-04-10T05:02:12;101400.38;;;8.12;100.00
30897;BME280;64229;52.246;21.054;2023-04-10T05:04:37;101397.84;;;8.18;100.00
30897;BME280;64229;52.246;21.054;2023-04-10T05:07:03;101414.44;;;8.20;100.00
30897;BME280;64229;52.246;21.054;2023-04-10T05:09:28;101389.44;;;8.02;100.00
30897;BME280;64229;52.246;21.054;2023-04-10T05:11:53;101417.16;;;8.13;100.00
30897;BME280;64229;52.246;21.054;2023-04-10T05:14:19;101414.72;;;8.11;100.00
30897;BME280;64229;52.246;21.054;2023-04-10T05:16:46;101401.47;;;8.05;100.00
30897;BME280;64229;52.246;21.054;2023-04-10T05:19:11;101417.66;;;8.22;100.00
30897;BME280;64229;52.246;21.054;2023-04-10T05:21:37;101409.38;;;8.11;100.00
30897;BME280;64229;52.246;21.054;2023-04-10T05:24:02;101427.28;;;8.23;100.00
30897;BME280;64229;52.246;21.054;2023-04-10T05:26:27;101436.59;;;8.32;100.00
30897;BME280;64229;52.246;21.054;2023-04-10T05:28:53;101431.91;;;8.27;100.00
30897;BME280;64229;52.246;21.054;2023-04-10T05:31:18;101437.63;;;8.31;100.00
30897;BME280;64229;52.246;21.054;2023-04-10T05:33:43;101435.13;;;8.36;100.00
30897;BME280;64229;52.246;21.054;2023-04-10T05:36:09;101435.88;;;8.43;100.00
30897;BME280;64229;52.246;21.054;2023-04-10T05:38:35;101424.44;;;8.43;100.00
30897;BME280;64229;52.246;21.054;2023-04-10T05:41:00;101419.47;;;8.46;100.00
30897;BME280;64229;52.246;21.054;2023-04-10T05:43:25;101440.34;;;8.61;100.00
30897;BME280;64229;52.246;21.054;2023-04-10T05:45:51;101447.88;;;8.82;100.00
30897;BME280;64229;52.246;21.054;2023-04-10T05:48:16;101440.38;;;8.91;100.00
30897;BME280;64229;52.246;21.054;2023-04-10T05:50:42;101450.59;;;8.94;100.00
30897;BME280;64229;52.246;21.054;2023-04-10T05:53:12;101451.53;;;8.99;100.00
30897;BME280;64229;52.246;21.054;2023-04-10T05:55:38;101453.91;;;9.08;100.00
30897;BME280;64229;52.246;21.054;2023-04-10T05:58:03;101447.38;;;9.04;100.00
30897;BME280;64229;52.246;21.054;2023-04-10T06:00:28;101411.22;;;8.84;100.00
30897;BME280;64229;52.246;21.054;2023-04-10T06:02:54;101449.34;;;9.26;100.00
30897;BME280;64229;52.246;21.054;2023-04-10T06:05:19;101454.09;;;9.36;100.00
30897;BME280;64229;52.246;21.054;2023-04-10T06:07:45;101457.22;;;9.45;100.00
30897;BME280;64229;52.246;21.054;2023-04-10T06:10:11;101447.75;;;9.49;100.00
30897;BME280;64229;52.246;21.054;2023-04-10T06:12:36;101450.66;;;9.47;100.00
30897;BME280;64229;52.246;21.054;2023-04-10T06:15:01;101455.28;;;9.52;100.00
30897;BME280;64229;52.246;21.054;2023-04-10T06:17:27;101449.63;;;9.48;100.00
30897;BME280;64229;52.246;21.054;2023-04-10T06:19:52;101458.44;;;9.61;100.00
30897;BME280;64229;52.246;21.054;2023-04-10T06:22:18;101456.81;;;9.71;100.00
30897;BME280;64229;52.246;21.054;2023-04-10T06:24:43;101461.81;;;9.68;100.00
30897;BME280;64229;52.246;21.054;2023-04-10T06:27:08;101453.69;;;9.74;100.00
30897;BME280;64229;52.246;21.054;2023-04-10T06:29:34;101452.53;;;9.82;100.00
30897;BME280;64229;52.246;21.054;2023-04-10T06:31:59;101460.41;;;9.89;100.00
30897;BME280;64229;52.246;21.054;2023-04-10T06:34:25;101455.22;;;9.94;100.00
30897;BME280;64229;52.246;21.054;2023-04-10T06:36:50;101459.72;;;10.05;100.00
30897;BME280;64229;52.246;21.054;2023-04-10T06:39:16;101455.34;;;10.10;100.00
30897;BME280;64229;52.246;21.054;2023-04-10T06:41:41;101441.41;;;9.97;100.00
30897;BME280;64229;52.246;21.054;2023-04-10T06:44:07;101464.59;;;10.20;99.61
30897;BME280;64229;52.246;21.054;2023-04-10T06:46:32;101463.22;;;10.17;100.00
30897;BME280;64229;52.246;21.054;2023-04-10T06:48:57;101467.66;;;10.23;98.83
30897;BME280;64229;52.246;21.054;2023-04-10T06:51:23;101449.88;;;10.17;100.00
30897;BME280;64229;52.246;21.054;2023-04-10T06:53:48;101471.13;;;10.35;99.29
30897;BME280;64229;52.246;21.054;2023-04-10T06:56:14;101471.69;;;10.37;100.00
30897;BME280;64229;52.246;21.054;2023-04-10T06:58:39;101476.53;;;10.40;100.00
30897;BME280;64229;52.246;21.054;2023-04-10T07:01:05;101481.88;;;10.52;99.68
30897;BME280;64229;52.246;21.054;2023-04-10T07:03:31;101474.31;;;10.61;100.00
30897;BME280;64229;52.246;21.054;2023-04-10T07:05:57;101482.88;;;10.75;98.45
30897;BME280;64229;52.246;21.054;2023-04-10T07:08:22;101476.34;;;10.82;98.47
30897;BME280;64229;52.246;21.054;2023-04-10T07:15:58;101481.78;;;11.16;96.64
30897;BME280;64229;52.246;21.054;2023-04-10T07:18:23;101473.88;;;11.21;94.98
30897;BME280;64229;52.246;21.054;2023-04-10T07:20:50;101482.94;;;11.48;93.09
30897;BME280;64229;52.246;21.054;2023-04-10T07:23:15;101484.63;;;11.54;93.45
30897;BME280;64229;52.246;21.054;2023-04-10T07:25:41;101475.53;;;11.55;94.16
30897;BME280;64229;52.246;21.054;2023-04-10T07:28:06;101486.72;;;11.52;94.52
30897;BME280;64229;52.246;21.054;2023-04-10T07:30:32;101483.47;;;11.50;95.23
30897;BME280;64229;52.246;21.054;2023-04-10T07:32:57;101479.81;;;11.56;96.22
30897;BME280;64229;52.246;21.054;2023-04-10T07:35:22;101480.91;;;11.72;95.08
30897;BME280;64229;52.246;21.054;2023-04-10T07:37:48;101469.81;;;11.97;93.46
30897;BME280;64229;52.246;21.054;2023-04-10T07:40:16;101468.53;;;12.22;92.16
30897;BME280;64229;52.246;21.054;2023-04-10T07:42:41;101476.81;;;12.20;92.99
30897;BME280;64229;52.246;21.054;2023-04-10T07:45:07;101479.91;;;12.29;92.44
30897;BME280;64229;52.246;21.054;2023-04-10T07:47:32;101471.63;;;12.52;91.51
30897;BME280;64229;52.246;21.054;2023-04-10T07:49:58;101474.66;;;12.56;92.63
30897;BME280;64229;52.246;21.054;2023-04-10T07:52:23;101472.31;;;12.64;91.64
30897;BME280;64229;52.246;21.054;2023-04-10T07:54:48;101483.16;;;12.74;91.69
30897;BME280;64229;52.246;21.054;2023-04-10T07:57:14;101476.50;;;12.99;88.54
30897;BME280;64229;52.246;21.054;2023-04-10T07:59:40;101472.28;;;13.08;87.73
30897;BME280;64229;52.246;21.054;2023-04-10T08:02:05;101476.13;;;13.17;86.68
30897;BME280;64229;52.246;21.054;2023-04-10T08:04:31;101468.78;;;13.29;85.83
30897;BME280;64229;52.246;21.054;2023-04-10T08:06:56;101477.56;;;13.52;83.57
30897;BME280;64229;52.246;21.054;2023-04-10T08:09:21;101476.25;;;13.54;84.05
30897;BME280;64229;52.246;21.054;2023-04-10T08:11:47;101469.59;;;13.62;82.36
30897;BME280;64229;52.246;21.054;2023-04-10T08:14:12;101468.47;;;13.90;79.52
30897;BME280;64229;52.246;21.054;2023-04-10T08:16:38;101466.66;;;14.01;79.67
30897;BME280;64229;52.246;21.054;2023-04-10T08:19:03;101467.56;;;14.16;78.96
30897;BME280;64229;52.246;21.054;2023-04-10T08:21:29;101464.38;;;14.25;78.83
30897;BME280;64229;52.246;21.054;2023-04-10T08:23:58;101458.28;;;14.39;78.32
30897;BME280;64229;52.246;21.054;2023-04-10T08:26:25;101465.47;;;14.81;76.71
30897;BME280;64229;52.246;21.054;2023-04-10T08:28:52;101461.00;;;16.78;72.23
30897;BME280;64229;52.246;21.054;2023-04-10T08:31:21;101466.78;;;19.36;61.95
30897;BME280;64229;52.246;21.054;2023-04-10T08:33:47;101463.59;;;22.42;51.17
30897;BME280;64229;52.246;21.054;2023-04-10T08:36:13;101466.09;;;23.65;46.53
30897;BME280;64229;52.246;21.054;2023-04-10T08:38:42;101466.00;;;26.08;41.86
30897;BME280;64229;52.246;21.054;2023-04-10T08:41:16;101478.03;;;28.24;32.75
30897;BME280;64229;52.246;21.054;2023-04-10T08:43:42;101477.84;;;29.03;33.04
30897;BME280;64229;52.246;21.054;2023-04-10T08:46:09;101469.91;;;30.28;29.76
30897;BME280;64229;52.246;21.054;2023-04-10T08:49:04;101468.25;;;31.06;27.72
30897;BME280;64229;52.246;21.054;2023-04-10T08:51:57;101472.69;;;31.89;26.94
30897;BME280;64229;52.246;21.054;2023-04-10T08:54:32;101469.38;;;32.83;25.56
30897;BME280;64229;52.246;21.054;2023-04-10T08:56:58;101469.94;;;33.20;25.96
30897;BME280;64229;52.246;21.054;2023-04-10T08:59:27;101461.31;;;33.40;24.65
30897;BME280;64229;52.246;21.054;2023-04-10T09:01:54;101462.50;;;33.81;23.98
30897;BME280;64229;52.246;21.054;2023-04-10T09:04:20;101456.16;;;34.23;22.46
30897;BME280;64229;52.246;21.054;2023-04-10T09:06:46;101451.41;;;33.46;23.88
30897;BME280;64229;52.246;21.054;2023-04-10T09:09:11;101448.66;;;33.49;24.10
30897;BME280;64229;52.246;21.054;2023-04-10T09:14:22;101440.38;;;33.67;23.13
30897;BME280;64229;52.246;21.054;2023-04-10T09:16:49;101449.06;;;33.69;22.38
30897;BME280;64229;52.246;21.054;2023-04-10T09:19:32;101441.09;;;34.32;21.69
30897;BME280;64229;52.246;21.054;2023-04-10T09:21:57;101446.13;;;34.76;21.37
30897;BME280;64229;52.246;21.054;2023-04-10T09:24:23;101442.56;;;34.79;20.99
30897;BME280;64229;52.246;21.054;2023-04-10T09:26:49;101440.34;;;33.81;22.55
30897;BME280;64229;52.246;21.054;2023-04-10T09:29:14;101408.34;;;33.87;22.31
30897;BME280;64229;52.246;21.054;2023-04-10T09:31:43;101431.94;;;34.63;20.56
30897;BME280;64229;52.246;21.054;2023-04-10T09:34:20;101426.47;;;34.45;21.47
30897;BME280;64229;52.246;21.054;2023-04-10T09:36:57;101414.66;;;33.84;21.34
30897;BME280;64229;52.246;21.054;2023-04-10T09:39:37;101422.91;;;34.23;21.09
30897;BME280;64229;52.246;21.054;2023-04-10T09:42:07;101417.03;;;34.07;21.13
30897;BME280;64229;52.246;21.054;2023-04-10T09:44:34;101409.03;;;33.17;22.69
30897;BME280;64229;52.246;21.054;2023-04-10T09:47:19;101416.13;;;33.07;21.86
30897;BME280;64229;52.246;21.054;2023-04-10T09:52:27;101405.84;;;32.90;22.07
30897;BME280;64229;52.246;21.054;2023-04-10T09:54:54;101404.91;;;32.64;22.17
30897;BME280;64229;52.246;21.054;2023-04-10T09:57:21;101366.78;;;32.22;21.50
30897;BME280;64229;52.246;21.054;2023-04-10T09:59:52;101381.16;;;31.80;22.19
30897;BME280;64229;52.246;21.054;2023-04-10T10:02:20;101393.34;;;31.01;23.03
30897;BME280;64229;52.246;21.054;2023-04-10T10:04:46;101379.66;;;30.14;24.05
30897;BME280;64229;52.246;21.054;2023-04-10T10:07:16;101386.16;;;27.55;26.88
30897;BME280;64229;52.246;21.054;2023-04-10T10:09:43;101385.69;;;26.53;28.63
30897;BME280;64229;52.246;21.054;2023-04-10T10:12:10;101375.50;;;25.31;31.42
30897;BME280;64229;52.246;21.054;2023-04-10T10:14:49;101378.34;;;24.10;32.21
30897;BME280;64229;52.246;21.054;2023-04-10T10:17:18;101367.06;;;23.52;34.19
30897;BME280;64229;52.246;21.054;2023-04-10T10:19:53;101374.41;;;22.88;34.01
30897;BME280;64229;52.246;21.054;2023-04-10T10:22:21;101338.31;;;22.30;36.01
30897;BME280;64229;52.246;21.054;2023-04-10T10:24:49;101350.91;;;22.09;36.70
30897;BME280;64229;52.246;21.054;2023-04-10T10:27:22;101352.94;;;21.94;37.58
30897;BME280;64229;52.246;21.054;2023-04-10T10:29:49;101345.00;;;21.67;37.65
30897;BME280;64229;52.246;21.054;2023-04-10T10:32:16;101332.69;;;21.07;37.76
30897;BME280;64229;52.246;21.054;2023-04-10T10:34:43;101342.34;;;20.55;38.66
30897;BME280;64229;52.246;21.054;2023-04-10T10:37:10;101332.63;;;20.54;38.91
30897;BME280;64229;52.246;21.054;2023-04-10T10:45:56;101333.97;;;20.65;38.45
30897;BME280;64229;52.246;21.054;2023-04-10T10:48:18;101327.59;;;20.47;39.58
30897;BME280;64229;52.246;21.054;2023-04-10T10:50:53;101323.94;;;20.02;40.42
30897;BME280;64229;52.246;21.054;2023-04-10T10:53:43;101319.75;;;20.10;38.93
30897;BME280;64229;52.246;21.054;2023-04-10T11:01:15;101318.09;;;20.09;38.78
30897;BME280;64229;52.246;21.054;2023-04-10T11:03:41;101319.44;;;20.11;40.09
30897;BME280;64229;52.246;21.054;2023-04-10T11:06:10;101316.53;;;19.94;41.11
30897;BME280;64229;52.246;21.054;2023-04-10T11:08:43;101314.41;;;20.05;40.77
30897;BME280;64229;52.246;21.054;2023-04-10T11:16:21;101304.88;;;20.07;38.53
30897;BME280;64229;52.246;21.054;2023-04-10T11:21:20;101292.25;;;19.89;39.18
30897;BME280;64229;52.246;21.054;2023-04-10T11:28:58;101276.38;;;19.41;42.37
30897;BME280;64229;52.246;21.054;2023-04-10T11:31:24;101276.25;;;19.32;42.83
30897;BME280;64229;52.246;21.054;2023-04-10T11:36:24;101285.63;;;18.94;44.27
30897;BME280;64229;52.246;21.054;2023-04-10T11:38:54;101276.94;;;18.78;44.33
30897;BME280;64229;52.246;21.054;2023-04-10T11:43:52;101260.94;;;19.28;41.32
30897;BME280;64229;52.246;21.054;2023-04-10T11:46:19;101264.25;;;19.52;41.05
30897;BME280;64229;52.246;21.054;2023-04-10T11:48:44;101242.81;;;19.70;40.69
30897;BME280;64229;52.246;21.054;2023-04-10T11:51:12;101254.47;;;20.06;40.14
30897;BME280;64229;52.246;21.054;2023-04-10T11:53:38;101246.47;;;20.01;40.35
30897;BME280;64229;52.246;21.054;2023-04-10T11:56:04;101257.06;;;20.25;39.67
30897;BME280;64229;52.246;21.054;2023-04-10T11:58:31;101245.56;;;20.06;40.90
30897;BME280;64229;52.246;21.054;2023-04-10T12:01:03;101253.81;;;20.01;41.24
30897;BME280;64229;52.246;21.054;2023-04-10T12:03:39;101255.41;;;20.02;40.33
30897;BME280;64229;52.246;21.054;2023-04-10T12:06:07;101235.44;;;19.98;39.22
30897;BME280;64229;52.246;21.054;2023-04-10T12:08:35;101237.91;;;19.72;38.57
30897;BME280;64229;52.246;21.054;2023-04-10T12:11:00;101230.97;;;19.65;39.72
30897;BME280;64229;52.246;21.054;2023-04-10T12:13:27;101227.34;;;19.84;39.72
30897;BME280;64229;52.246;21.054;2023-04-10T12:15:53;101225.38;;;19.98;40.24
30897;BME280;64229;52.246;21.054;2023-04-10T12:18:21;101220.75;;;20.12;40.03
30897;BME280;64229;52.246;21.054;2023-04-10T12:20:47;101200.31;;;20.29;38.68
30897;BME280;64229;52.246;21.054;2023-04-10T12:23:13;101217.38;;;20.43;38.04
30897;BME280;64229;52.246;21.054;2023-04-10T12:25:40;101210.03;;;20.43;37.74
30897;BME280;64229;52.246;21.054;2023-04-10T12:28:05;101202.47;;;20.63;36.97
30897;BME280;64229;52.246;21.054;2023-04-10T12:30:31;101204.97;;;20.82;36.90
30897;BME280;64229;52.246;21.054;2023-04-10T12:32:56;101198.53;;;21.00;36.68
30897;BME280;64229;52.246;21.054;2023-04-10T12:35:37;101194.06;;;20.73;38.15
30897;BME280;64229;52.246;21.054;2023-04-10T12:38:03;101203.34;;;20.72;38.13
30897;BME280;64229;52.246;21.054;2023-04-10T12:40:29;101196.69;;;20.78;37.02
30897;BME280;64229;52.246;21.054;2023-04-10T12:42:54;101199.69;;;20.76;37.10
30897;BME280;64229;52.246;21.054;2023-04-10T12:45:20;101189.44;;;20.42;38.18
30897;BME280;64229;52.246;21.054;2023-04-10T12:47:49;101188.97;;;20.27;38.21
30897;BME280;64229;52.246;21.054;2023-04-10T12:50:18;101178.16;;;19.90;38.94
30897;BME280;64229;52.246;21.054;2023-04-10T12:53:00;101183.31;;;19.78;38.46
30897;BME280;64229;52.246;21.054;2023-04-10T12:55:25;101183.22;;;20.06;38.16
30897;BME280;64229;52.246;21.054;2023-04-10T12:57:53;101179.66;;;20.19;39.05
30897;BME280;64229;52.246;21.054;2023-04-10T13:00:19;101178.91;;;20.72;36.25
30897;BME280;64229;52.246;21.054;2023-04-10T13:02:46;101177.19;;;21.16;35.74
30897;BME280;64229;52.246;21.054;2023-04-10T13:05:12;101170.97;;;21.63;34.01
30897;BME280;64229;52.246;21.054;2023-04-10T13:07:37;101170.50;;;21.70;34.42
30897;BME280;64229;52.246;21.054;2023-04-10T13:10:04;101147.81;;;21.83;34.84
30897;BME280;64229;52.246;21.054;2023-04-10T13:12:30;101165.41;;;22.20;33.43
30897;BME280;64229;52.246;21.054;2023-04-10T13:14:56;101161.56;;;21.70;34.52
30897;BME280;64229;52.246;21.054;2023-04-10T13:17:24;101155.44;;;21.55;35.36
30897;BME280;64229;52.246;21.054;2023-04-10T13:19:50;101141.09;;;21.06;36.92
30897;BME280;64229;52.246;21.054;2023-04-10T13:22:15;101162.19;;;21.09;36.76
30897;BME280;64229;52.246;21.054;2023-04-10T13:24:41;101139.28;;;20.54;37.27
30897;BME280;64229;52.246;21.054;2023-04-10T13:27:07;101157.97;;;20.41;37.52